Time;durP1;ratioP1;P1;durP2;ratioP2;P2;SDS_P1;SDS_P2;PMS_P1;PMS_P2;Temp;Humidity;BMP_temperature;BMP_pressure;BME280_temperature;BME280_humidity;BME280_pressure;Samples;Min_cycle;Max_cycle;Signal;HPM_P1;HPM_P2
2021/12/07 00:01:59;;;;;;;1999.90;999.90;;;;;;;1.72;100.00;162857.47;5038650;28;20311;-65
2021/12/07 00:04:26;;;;;;;1999.90;999.90;;;;;;;1.44;100.00;162782.19;5043168;28;20468;-65
2021/12/07 00:06:53;;;;;;;1999.90;999.90;;;;;;;1.64;100.00;162834.19;5030419;28;20042;-65
2021/12/07 00:09:21;;;;;;;1999.90;999.90;;;;;;;1.61;100.00;162825.97;5035861;28;20053;-65
2021/12/07 00:11:49;;;;;;;1999.90;999.90;;;;;;;1.45;100.00;162783.59;5031618;28;20378;-65
2021/12/07 00:14:23;;;;;;;1999.90;999.90;;;;;;;1.34;100.00;162754.81;5043882;28;20049;-65
2021/12/07 00:16:52;;;;;;;1999.90;999.90;;;;;;;1.26;100.00;162732.94;5041018;28;20062;-65
2021/12/07 00:19:20;;;;;;;1999.90;999.90;;;;;;;1.67;100.00;162843.78;5045100;28;20053;-65
2021/12/07 00:21:47;;;;;;;1999.90;999.90;;;;;;;1.64;100.00;162835.59;5032649;28;20357;-65
2021/12/07 00:24:15;;;;;;;1999.90;999.90;;;;;;;1.65;100.00;162838.28;5034666;28;20041;-65
2021/12/07 00:26:43;;;;;;;1999.90;999.90;;;;;;;1.10;100.00;162691.84;5040176;28;20371;-65
2021/12/07 00:29:12;;;;;;;1999.90;999.90;;;;;;;0.99;100.00;162663.13;5036143;28;20052;-65
2021/12/07 00:31:50;;;;;;;1999.90;999.90;;;;;;;1.35;100.00;162758.91;5033346;28;20516;-65
2021/12/07 00:36:47;;;;;;;1999.90;999.90;;;;;;;1.38;100.00;162765.75;5037602;28;20048;-65
2021/12/07 00:39:17;;;;;;;1999.90;999.90;;;;;;;1.71;100.00;162854.75;5040503;28;20429;-65
2021/12/07 00:41:44;;;;;;;1999.90;999.90;;;;;;;1.93;100.00;162912.22;5040755;28;20044;-65
2021/12/07 00:44:11;;;;;;;1999.90;999.90;;;;;;;1.74;100.00;162862.97;5031576;28;20051;-65
2021/12/07 00:46:38;;;;;;;1999.90;999.90;;;;;;;1.57;100.00;162816.41;5040261;28;20381;-64
2021/12/07 00:49:05;;;;;;;1999.90;999.90;;;;;;;1.58;100.00;162819.16;5037827;28;20041;-65
2021/12/07 00:51:32;;;;;;;1999.90;999.90;;;;;;;1.58;100.00;162820.50;5041051;28;20045;-65
2021/12/07 00:53:59;;;;;;;1999.90;999.90;;;;;;;1.59;100.00;162821.88;5040642;28;20049;-65
2021/12/07 00:56:26;;;;;;;1999.90;999.90;;;;;;;1.37;100.00;162763.00;5034858;28;20080;-65
2021/12/07 00:58:54;;;;;;;1999.90;999.90;;;;;;;1.45;100.00;162784.94;5035878;28;20052;-65
2021/12/07 01:01:21;;;;;;;1999.90;999.90;;;;;;;1.71;100.00;162853.34;5038367;28;20053;-65
2021/12/07 01:03:49;;;;;;;1999.90;999.90;;;;;;;1.64;100.00;162835.59;5042719;28;20441;-64
2021/12/07 01:25:47;;;;;;;1999.90;999.90;;;;;;;1.51;100.00;162801.34;5032739;28;20049;-64
2021/12/07 01:28:37;;;;;;;1999.90;999.90;;;;;;;1.66;100.00;162841.03;5032123;28;20092;-64
2021/12/07 01:31:21;;;;;;;1999.90;999.90;;;;;;;1.24;100.00;162728.84;5035203;28;20049;-64
2021/12/07 01:37:01;;;;;;;1999.90;999.90;;;;;;;1.61;99.80;162827.38;5032828;28;20076;-64
2021/12/07 01:53:02;;;;;;;1999.90;999.90;;;;;;;1.34;99.30;162756.22;5046434;28;20057;-65
2021/12/07 02:00:54;;;;;;;1999.90;999.90;;;;;;;1.34;100.00;162756.22;5035684;28;20676;-65
2021/12/07 02:03:21;;;;;;;1999.90;999.90;;;;;;;1.45;99.41;162783.59;5038087;28;20050;-65
2021/12/07 02:05:49;;;;;;;1999.90;999.90;;;;;;;1.40;99.96;162771.25;5034356;28;20341;-65
2021/12/07 02:08:15;;;;;;;1999.90;999.90;;;;;;;1.21;100.00;162720.63;5042873;28;20077;-65
2021/12/07 02:10:42;;;;;;;1999.90;999.90;;;;;;;1.25;100.00;162730.19;5045789;28;20407;-65
2021/12/07 02:13:23;;;;;;;1999.90;999.90;;;;;;;1.68;98.98;162846.53;5038482;28;20509;-66
2021/12/07 02:15:50;;;;;;;1999.90;999.90;;;;;;;1.70;98.35;162850.66;5038741;28;20083;-66
2021/12/07 02:18:16;;;;;;;1999.90;999.90;;;;;;;1.60;98.44;162823.28;5041297;28;20345;-65
2021/12/07 02:20:47;;;;;;;1999.90;999.90;;;;;;;1.75;98.18;162864.31;5045885;28;20045;-66
2021/12/07 02:23:15;;;;;;;1999.90;999.90;;;;;;;1.43;99.13;162778.06;5042343;28;20084;-66
2021/12/07 02:25:42;;;;;;;1999.90;999.90;;;;;;;1.27;99.09;162735.69;5035648;28;20135;-66
2021/12/07 02:28:16;;;;;;;1999.90;999.90;;;;;;;1.48;99.13;162793.13;5038385;28;20114;-64
2021/12/07 02:30:44;;;;;;;1999.90;999.90;;;;;;;1.56;98.72;162813.66;5040746;28;20146;-64
2021/12/07 02:33:11;;;;;;;1999.90;999.90;;;;;;;1.34;98.54;162756.22;5043559;28;20049;-64
2021/12/07 02:35:38;;;;;;;1999.90;999.90;;;;;;;1.40;98.72;162772.63;5040863;28;20106;-64
2021/12/07 02:38:05;;;;;;;1999.90;999.90;;;;;;;1.53;98.63;162805.44;5040852;28;20111;-65
2021/12/07 02:40:32;;;;;;;1999.90;999.90;;;;;;;1.52;98.73;162802.69;5034617;28;20041;-65
2021/12/07 02:42:58;;;;;;;1999.90;999.90;;;;;;;1.48;99.02;162791.78;5043308;28;20056;-64
2021/12/07 02:45:26;;;;;;;1999.90;999.90;;;;;;;1.62;97.75;162828.72;5036662;28;20049;-65
2021/12/07 02:47:53;;;;;;;1999.90;999.90;;;;;;;1.80;97.63;162876.63;5043981;28;20045;-65
2021/12/07 02:50:20;;;;;;;1999.90;999.90;;;;;;;1.54;97.83;162809.56;5038591;28;20049;-65
2021/12/07 02:52:47;;;;;;;1999.90;999.90;;;;;;;1.60;97.94;162824.63;5042701;28;20182;-65
2021/12/07 02:55:15;;;;;;;1999.90;999.90;;;;;;;1.39;98.27;162769.88;5038403;28;20377;-65
2021/12/07 02:57:43;;;;;;;1999.90;999.90;;;;;;;1.26;98.74;162732.94;5032741;28;20101;-64
2021/12/07 03:00:17;;;;;;;1999.90;999.90;;;;;;;1.14;98.87;162701.47;5036413;28;20678;-65
2021/12/07 03:02:52;;;;;;;1999.90;999.90;;;;;;;0.95;100.00;162650.81;5037279;28;20142;-64
2021/12/07 03:27:35;;;;;;;1999.90;999.90;;;;;;;1.52;99.48;162802.69;5034710;28;20041;-65
2021/12/07 03:30:04;;;;;;;1999.90;999.90;;;;;;;1.54;98.20;162808.19;5042017;28;20142;-65
2021/12/07 03:32:31;;;;;;;1999.90;999.90;;;;;;;1.32;98.90;162750.69;5039450;28;20103;-65
2021/12/07 03:34:58;;;;;;;1999.90;999.90;;;;;;;1.13;100.00;162698.72;5031843;28;20044;-65
2021/12/07 03:37:24;;;;;;;1999.90;999.90;;;;;;;1.22;99.23;162723.31;5040490;28;20045;-65
2021/12/07 03:39:51;;;;;;;1999.90;999.90;;;;;;;1.21;99.77;162721.97;5037922;28;20049;-65
2021/12/07 03:42:17;;;;;;;1999.90;999.90;;;;;;;1.39;99.43;162769.88;5031942;28;20081;-65
2021/12/07 03:44:44;;;;;;;1999.90;999.90;;;;;;;1.28;99.09;162739.78;5047364;28;20045;-65
2021/12/07 03:47:10;;;;;;;1999.90;999.90;;;;;;;1.18;100.00;162712.41;5039733;28;20103;-65
2021/12/07 03:49:37;;;;;;;1999.90;999.90;;;;;;;1.40;99.34;162772.63;5035713;28;20041;-65
2021/12/07 03:52:04;;;;;;;1999.90;999.90;;;;;;;1.62;98.76;162830.06;5042434;28;20107;-65
2021/12/07 03:54:30;;;;;;;1999.90;999.90;;;;;;;1.61;98.78;162825.97;5037390;28;20080;-65
2021/12/07 03:56:57;;;;;;;1999.90;999.90;;;;;;;1.81;97.45;162879.38;5036588;28;20096;-65
2021/12/07 03:59:23;;;;;;;1999.90;999.90;;;;;;;1.72;97.94;162856.09;5035008;28;20061;-65
2021/12/07 04:01:51;;;;;;;1999.90;999.90;;;;;;;1.85;97.48;162890.34;5037600;28;20080;-65
2021/12/07 04:04:19;;;;;;;1999.90;999.90;;;;;;;1.61;97.59;162825.97;5037680;28;20077;-65
2021/12/07 04:06:45;;;;;;;1999.90;999.90;;;;;;;1.48;98.69;162791.78;5042375;28;20063;-65
2021/12/07 04:09:12;;;;;;;1999.90;999.90;;;;;;;1.21;100.00;162721.97;5036787;28;20095;-65
2021/12/07 04:11:39;;;;;;;1999.90;999.90;;;;;;;1.55;99.06;162810.94;5032082;28;20076;-65
2021/12/07 04:14:06;;;;;;;1999.90;999.90;;;;;;;1.53;98.72;162805.44;5041204;28;20400;-65
2021/12/07 04:16:34;;;;;;;1999.90;999.90;;;;;;;1.62;98.04;162830.06;5039313;28;20053;-65
2021/12/07 04:19:01;;;;;;;1999.90;999.90;;;;;;;1.90;97.41;162905.38;5045055;28;21972;-65
2021/12/07 04:21:27;;;;;;;1999.90;999.90;;;;;;;1.86;97.25;162893.06;5032266;28;20049;-65
2021/12/07 04:23:54;;;;;;;1999.90;999.90;;;;;;;2.00;96.91;162930.06;5033033;28;20077;-65
2021/12/07 04:26:21;;;;;;;1999.90;999.90;;;;;;;1.54;97.54;162809.56;5037171;28;20043;-65
2021/12/07 04:28:47;;;;;;;1999.90;999.90;;;;;;;1.45;99.58;162784.94;5046583;28;20434;-65
2021/12/07 04:31:14;;;;;;;1999.90;999.90;;;;;;;1.73;97.87;162860.22;5042639;28;20041;-66
2021/12/07 04:33:41;;;;;;;1999.90;999.90;;;;;;;1.52;98.03;162802.69;5038034;28;20057;-65
2021/12/07 04:36:09;;;;;;;1999.90;999.90;;;;;;;1.42;98.56;162776.72;5037639;28;20075;-65
2021/12/07 04:38:37;;;;;;;1999.90;999.90;;;;;;;1.27;99.94;162737.03;5038874;28;20107;-66
2021/12/07 04:41:04;;;;;;;1999.90;999.90;;;;;;;1.15;100.00;162704.22;5040786;28;20045;-65
2021/12/07 04:43:33;;;;;;;1999.90;999.90;;;;;;;1.51;99.18;162800.00;5034776;28;20053;-66
2021/12/07 04:46:11;;;;;;;1999.90;999.90;;;;;;;1.64;98.26;162835.59;5042664;28;20106;-66
2021/12/07 04:59:59;;;;;;;1999.90;999.90;;;;;;;0.94;100.00;162649.47;5035264;28;20049;-66
2021/12/07 05:02:26;;;;;;;1999.90;999.90;;;;;;;1.30;100.00;162745.25;5042811;28;20440;-66
2021/12/07 05:04:53;;;;;;;1999.90;999.90;;;;;;;1.30;99.24;162745.25;5033297;28;20237;-65
2021/12/07 05:07:28;;;;;;;1999.90;999.90;;;;;;;1.43;99.59;162778.06;5040383;28;20102;-65
2021/12/07 05:12:40;;;;;;;1999.90;999.90;;;;;;;0.85;100.00;162624.88;5044278;28;20084;-65
2021/12/07 05:15:34;;;;;;;1999.90;999.90;;;;;;;0.63;100.00;162567.38;5034237;28;20112;-65
2021/12/07 05:34:45;;;;;;;1999.90;999.90;;;;;;;1.49;99.56;162795.91;5037116;28;20090;-66
2021/12/07 05:39:58;;;;;;;1999.90;999.90;;;;;;;1.51;99.27;162801.34;5035586;28;20398;-66
2021/12/07 05:42:25;;;;;;;1999.90;999.90;;;;;;;1.66;97.87;162841.03;5035744;28;20113;-66
2021/12/07 05:44:53;;;;;;;1999.90;999.90;;;;;;;1.84;98.17;162887.59;5042851;28;20103;-66
2021/12/07 05:47:21;;;;;;;1999.90;999.90;;;;;;;1.95;97.07;162917.72;5040819;28;20408;-66
2021/12/07 05:49:48;;;;;;;1999.90;999.90;;;;;;;1.83;96.87;162884.84;5046379;28;20132;-66
2021/12/07 05:52:15;;;;;;;1999.90;999.90;;;;;;;1.89;97.25;162902.66;5036650;28;20053;-66
2021/12/07 05:54:41;;;;;;;1999.90;999.90;;;;;;;1.88;96.90;162899.91;5038959;28;20107;-66
2021/12/07 05:57:08;;;;;;;1999.90;999.90;;;;;;;1.83;97.38;162884.84;5046456;28;20064;-67
2021/12/07 05:59:34;;;;;;;1999.90;999.90;;;;;;;1.73;98.00;162858.88;5039963;28;20119;-66
2021/12/07 06:02:01;;;;;;;1999.90;999.90;;;;;;;2.02;97.05;162936.84;5037216;28;20430;-66
2021/12/07 06:04:30;;;;;;;1999.90;999.90;;;;;;;1.99;96.36;162928.66;5037369;28;20046;-66
2021/12/07 06:06:58;;;;;;;1999.90;999.90;;;;;;;1.97;97.63;162923.19;5039420;28;20116;-66
2021/12/07 06:09:25;;;;;;;1999.90;999.90;;;;;;;2.09;96.67;162954.69;5044210;28;20053;-66
2021/12/07 06:11:53;;;;;;;1999.90;999.90;;;;;;;2.07;96.66;162950.56;5045284;28;20045;-66
2021/12/07 06:14:21;;;;;;;1999.90;999.90;;;;;;;1.88;96.57;162899.91;5035016;28;20099;-66
2021/12/07 06:16:48;;;;;;;1999.90;999.90;;;;;;;1.93;97.35;162912.22;5041060;28;20430;-66
2021/12/07 06:19:15;;;;;;;1999.90;999.90;;;;;;;1.78;97.54;162871.19;5041124;28;20118;-66
2021/12/07 06:21:42;;;;;;;1999.90;999.90;;;;;;;1.88;97.82;162899.91;5041592;28;20049;-65
2021/12/07 06:24:09;;;;;;;1999.90;999.90;;;;;;;1.83;97.72;162884.84;5037113;28;20054;-66
2021/12/07 06:26:35;;;;;;;1999.90;999.90;;;;;;;1.97;97.08;162923.19;5038458;28;20085;-66
2021/12/07 06:29:03;;;;;;;1999.90;999.90;;;;;;;1.90;97.22;162904.00;5037807;28;20102;-66
2021/12/07 06:31:30;;;;;;;1999.90;999.90;;;;;;;1.93;97.80;162913.56;5037426;28;20046;-65
2021/12/07 06:33:56;;;;;;;1999.90;999.90;;;;;;;1.92;97.48;162909.47;5043083;28;20049;-65
2021/12/07 06:36:26;;;;;;;1999.90;999.90;;;;;;;1.86;97.59;162893.06;5043189;28;20098;-65
2021/12/07 06:38:52;;;;;;;1999.90;999.90;;;;;;;1.84;97.47;162888.94;5039506;28;20045;-66
2021/12/07 06:41:19;;;;;;;1999.90;999.90;;;;;;;1.98;98.04;162924.53;5036790;28;20049;-65
2021/12/07 06:43:46;;;;;;;1999.90;999.90;;;;;;;1.96;97.74;162920.44;5048438;28;20103;-66
2021/12/07 06:46:13;;;;;;;1999.90;999.90;;;;;;;2.11;96.83;162961.53;5046214;28;20048;-65
2021/12/07 06:48:40;;;;;;;1999.90;999.90;;;;;;;2.25;96.66;162997.16;5042454;28;20058;-65
2021/12/07 06:51:07;;;;;;;1999.90;999.90;;;;;;;1.73;97.86;162858.88;5035555;28;20099;-66
2021/12/07 06:53:36;;;;;;;1999.90;999.90;;;;;;;1.72;98.45;162856.09;5039283;28;20054;-65
2021/12/07 06:56:05;;;;;;;1999.90;999.90;;;;;;;1.48;99.28;162791.78;5039290;28;20049;-65
2021/12/07 06:58:32;;;;;;;1999.90;999.90;;;;;;;1.58;98.69;162819.16;5038452;28;20165;-65
2021/12/07 07:00:59;;;;;;;1999.90;999.90;;;;;;;1.72;98.66;162857.47;5036029;28;20113;-65
2021/12/07 07:03:26;;;;;;;1999.90;999.90;;;;;;;1.52;100.00;162802.69;5035298;28;20111;-65
2021/12/07 07:05:53;;;;;;;1999.90;999.90;;;;;;;1.71;99.07;162854.75;5044443;28;20116;-65
2021/12/07 07:08:20;;;;;;;1999.90;999.90;;;;;;;2.05;97.62;162945.06;5041960;28;20057;-65
2021/12/07 07:10:46;;;;;;;1999.90;999.90;;;;;;;2.24;97.38;162995.75;5041685;28;20041;-65
2021/12/07 07:13:14;;;;;;;1999.90;999.90;;;;;;;2.06;96.57;162947.81;5041801;28;20122;-65
2021/12/07 07:15:41;;;;;;;1999.90;999.90;;;;;;;2.14;96.87;162967.00;5042253;28;20496;-65
2021/12/07 07:18:08;;;;;;;1999.90;999.90;;;;;;;2.14;97.53;162967.00;5037928;28;20055;-65
2021/12/07 07:20:35;;;;;;;1999.90;999.90;;;;;;;2.28;97.43;163005.34;5041289;28;20396;-65
2021/12/07 07:23:02;;;;;;;1999.90;999.90;;;;;;;2.34;97.03;163021.78;5033703;28;20065;-65
2021/12/07 07:25:28;;;;;;;1999.90;999.90;;;;;;;2.13;96.54;162965.66;5036964;28;20058;-65
2021/12/07 07:27:55;;;;;;;1999.90;999.90;;;;;;;1.58;99.17;162819.16;5042279;28;20072;-65
2021/12/07 07:30:22;;;;;;;1999.90;999.90;;;;;;;2.06;98.61;162946.47;5035245;28;20414;-64
2021/12/07 07:32:50;;;;;;;1999.90;999.90;;;;;;;2.02;97.66;162936.84;5043957;28;20092;-65
2021/12/07 07:35:17;;;;;;;1999.90;999.90;;;;;;;1.87;98.03;162895.81;5041965;28;20052;-65
2021/12/07 07:37:45;;;;;;;1999.90;999.90;;;;;;;1.83;99.36;162884.84;5033420;28;20066;-65
2021/12/07 07:40:15;;;;;;;1999.90;999.90;;;;;;;2.18;97.42;162979.31;5042071;28;20045;-65
2021/12/07 07:42:42;;;;;;;1999.90;999.90;;;;;;;1.88;98.49;162898.56;5040773;28;20507;-65
2021/12/07 07:45:10;;;;;;;1999.90;999.90;;;;;;;2.30;98.22;163010.81;5044518;28;20357;-64
2021/12/07 07:47:37;;;;;;;1999.90;999.90;;;;;;;2.37;96.94;163030.00;5040432;28;20053;-64
2021/12/07 07:50:07;;;;;;;1999.90;999.90;;;;;;;2.18;97.14;162979.31;5038775;28;20099;-65
2021/12/07 07:52:33;;;;;;;1999.90;999.90;;;;;;;2.14;96.92;162967.00;5039204;28;20338;-65
2021/12/07 07:55:00;;;;;;;1999.90;999.90;;;;;;;2.20;96.90;162983.41;5036683;28;20088;-65
2021/12/07 07:57:28;;;;;;;1999.90;999.90;;;;;;;2.22;97.22;162988.88;5041840;28;20053;-65
2021/12/07 07:59:54;;;;;;;1999.90;999.90;;;;;;;2.37;96.73;163030.00;5034348;28;20119;-65
2021/12/07 08:02:21;;;;;;;1999.90;999.90;;;;;;;2.40;97.25;163036.84;5041051;28;20349;-66
2021/12/07 08:04:48;;;;;;;1999.90;999.90;;;;;;;2.42;96.58;163043.66;5039595;28;20055;-65
2021/12/07 08:07:14;;;;;;;1999.90;999.90;;;;;;;2.35;96.95;163023.13;5043491;28;20073;-65
2021/12/07 08:09:41;;;;;;;1999.90;999.90;;;;;;;2.46;96.91;163053.28;5036367;28;20045;-65
2021/12/07 08:12:08;;;;;;;1999.90;999.90;;;;;;;2.50;97.11;163064.25;5035033;28;20084;-66
2021/12/07 08:14:35;;;;;;;1999.90;999.90;;;;;;;2.11;97.16;162961.53;5054747;28;20056;-65
2021/12/07 08:17:03;;;;;;;1999.90;999.90;;;;;;;2.37;97.24;163030.00;5043585;28;20052;-65
2021/12/07 08:19:30;;;;;;;1999.90;999.90;;;;;;;2.15;97.53;162971.09;5069796;28;20059;-65
2021/12/07 08:21:57;;;;;;;1999.90;999.90;;;;;;;2.45;97.02;163051.88;5045668;28;20469;-65
2021/12/07 08:24:23;;;;;;;1999.90;999.90;;;;;;;2.47;97.00;163057.38;5035969;28;20567;-65
2021/12/07 08:26:50;;;;;;;1999.90;999.90;;;;;;;2.32;97.52;163016.28;5037640;28;20181;-65
2021/12/07 08:29:17;;;;;;;1999.90;999.90;;;;;;;2.18;98.10;162977.97;5040320;28;20104;-65
2021/12/07 08:31:44;;;;;;;1999.90;999.90;;;;;;;2.50;97.02;163064.25;5034125;28;20041;-65
2021/12/07 08:34:10;;;;;;;1999.90;999.90;;;;;;;2.51;96.40;163065.59;5038466;28;20103;-66
2021/12/07 08:36:37;;;;;;;1999.90;999.90;;;;;;;2.56;95.85;163080.69;5039727;28;20053;-65
2021/12/07 08:39:05;;;;;;;1999.90;999.90;;;;;;;2.46;96.16;163054.63;5046044;28;20155;-66
2021/12/07 08:41:31;;;;;;;1999.90;999.90;;;;;;;2.59;95.96;163088.91;5039420;28;20079;-65
2021/12/07 08:43:58;;;;;;;1999.90;999.90;;;;;;;2.33;97.32;163019.03;5047274;28;20089;-65
2021/12/07 08:46:25;;;;;;;1999.90;999.90;;;;;;;2.28;96.62;163005.34;5031660;28;20054;-65
2021/12/07 08:48:52;;;;;;;1999.90;999.90;;;;;;;2.55;96.57;163077.94;5038859;28;20048;-65
2021/12/07 08:51:18;;;;;;;1999.90;999.90;;;;;;;2.57;96.00;163083.38;5038397;28;20040;-65
2021/12/07 08:53:53;;;;;;;1999.90;999.90;;;;;;;2.63;95.91;163099.88;5047450;28;20041;-66
2021/12/07 09:01:52;;;;;;;1999.90;999.90;;;;;;;2.59;96.25;163088.91;5043155;28;20049;-65
2021/12/07 09:04:20;;;;;;;1999.90;999.90;;;;;;;2.50;95.88;163064.25;5041435;28;20057;-65
2021/12/07 09:06:48;;;;;;;1999.90;999.90;;;;;;;2.43;97.43;163046.41;5039994;28;20501;-65
2021/12/07 09:09:15;;;;;;;1999.90;999.90;;;;;;;2.73;96.44;163124.50;5034185;28;20095;-65
2021/12/07 09:11:43;;;;;;;1999.90;999.90;;;;;;;2.71;96.24;163120.41;5044322;28;20098;-65
2021/12/07 09:14:12;;;;;;;1999.90;999.90;;;;;;;2.75;96.42;163131.31;5037804;28;20103;-65
2021/12/07 09:16:38;;;;;;;1999.90;999.90;;;;;;;2.73;96.00;163124.50;5046986;28;20272;-65
2021/12/07 09:19:05;;;;;;;1999.90;999.90;;;;;;;2.56;96.59;163080.69;5036562;28;20346;-66
2021/12/07 09:21:32;;;;;;;1999.90;999.90;;;;;;;2.39;97.75;163034.09;5041056;28;20053;-65
2021/12/07 09:24:00;;;;;;;1999.90;999.90;;;;;;;2.42;97.69;163042.31;5043182;28;20056;-65
2021/12/07 09:26:26;;;;;;;1999.90;999.90;;;;;;;2.38;97.34;163032.75;5038711;28;20045;-66
2021/12/07 09:28:53;;;;;;;1999.90;999.90;;;;;;;2.33;97.56;163019.03;5045594;28;20118;-66
2021/12/07 09:31:21;;;;;;;1999.90;999.90;;;;;;;2.08;98.38;162953.31;5046302;28;20072;-66
2021/12/07 09:33:49;;;;;;;1999.90;999.90;;;;;;;1.99;99.50;162928.66;5037417;28;20056;-66
2021/12/07 09:36:15;;;;;;;1999.90;999.90;;;;;;;2.06;99.32;162947.81;5041077;28;20484;-66
2021/12/07 09:38:43;;;;;;;1999.90;999.90;;;;;;;2.02;100.00;162936.84;5049309;28;20052;-65
2021/12/07 09:41:11;;;;;;;1999.90;999.90;;;;;;;2.38;99.01;163031.34;5043759;28;20284;-66
2021/12/07 09:43:38;;;;;;;1999.90;999.90;;;;;;;2.46;98.02;163054.63;5046334;28;20400;-66
2021/12/07 09:46:07;;;;;;;1999.90;999.90;;;;;;;2.47;98.29;163056.00;5034921;28;20051;-65
2021/12/07 09:48:35;;;;;;;1999.90;999.90;;;;;;;2.44;98.07;163049.19;5042992;28;20041;-66
2021/12/07 09:51:04;;;;;;;1999.90;999.90;;;;;;;2.30;97.89;163010.81;5048615;28;20292;-66
2021/12/07 09:53:31;;;;;;;1999.90;999.90;;;;;;;2.10;99.25;162958.78;5044652;28;20045;-66
2021/12/07 09:55:59;;;;;;;1999.90;999.90;;;;;;;2.21;99.02;162986.19;5036533;28;20496;-65
2021/12/07 09:58:26;;;;;;;1999.90;999.90;;;;;;;2.35;98.21;163024.50;5042580;28;20111;-66
2021/12/07 10:00:53;;;;;;;1999.90;999.90;;;;;;;2.45;98.54;163050.53;5046531;28;20507;-66
2021/12/07 10:03:21;;;;;;;1999.90;999.90;;;;;;;2.42;98.37;163043.66;5049042;28;20396;-66
2021/12/07 10:05:48;;;;;;;1999.90;999.90;;;;;;;2.73;96.56;163125.88;5080552;28;20055;-66
2021/12/07 10:08:15;;;;;;;1999.90;999.90;;;;;;;2.77;96.14;163136.84;5037939;28;20103;-66
2021/12/07 10:10:47;;;;;;;1999.90;999.90;;;;;;;2.74;96.37;163128.63;5042305;28;20416;-66
2021/12/07 10:13:15;;;;;;;1999.90;999.90;;;;;;;2.54;96.63;163075.16;5045098;28;20099;-66
2021/12/07 10:15:43;;;;;;;1999.90;999.90;;;;;;;2.23;98.72;162991.63;5044424;28;20045;-66
2021/12/07 10:18:19;;;;;;;1999.90;999.90;;;;;;;2.23;98.78;162991.63;5035937;28;20052;-65
2021/12/07 10:21:10;;;;;;;1999.90;999.90;;;;;;;1.99;99.83;162928.66;5035901;28;20071;-65
2021/12/07 10:23:40;;;;;;;1999.90;999.90;;;;;;;2.24;99.57;162994.38;5045231;28;20049;-65
2021/12/07 10:26:13;;;;;;;1999.90;999.90;;;;;;;2.28;99.32;163005.34;5040578;28;20160;-65
2021/12/07 10:28:44;;;;;;;1999.90;999.90;;;;;;;2.48;98.95;163058.75;5035886;28;20096;-65
2021/12/07 10:31:45;;;;;;;1999.90;999.90;;;;;;;2.48;98.19;163058.75;5036612;28;20496;-65
2021/12/07 10:34:35;;;;;;;1999.90;999.90;;;;;;;2.57;97.52;163083.38;5040633;28;20049;-65
2021/12/07 10:37:09;;;;;;;1999.90;999.90;;;;;;;2.66;97.30;163106.69;5044979;28;20048;-66
2021/12/07 10:39:42;;;;;;;1999.90;999.90;;;;;;;2.65;97.36;163103.97;5045305;28;20358;-65
2021/12/07 10:42:30;;;;;;;1999.90;999.90;;;;;;;2.83;97.44;163151.91;5041237;28;20566;-65
2021/12/07 10:45:02;;;;;;;1999.90;999.90;;;;;;;2.85;96.95;163157.38;5042271;28;20488;-65
2021/12/07 10:47:29;;;;;;;1999.90;999.90;;;;;;;2.66;97.11;163105.34;5076202;28;20111;-65
2021/12/07 10:50:01;;;;;;;1999.90;999.90;;;;;;;3.03;96.39;163205.31;5048471;28;20114;-66
2021/12/07 10:52:38;;;;;;;1999.90;999.90;;;;;;;2.90;96.18;163169.69;5039722;28;20038;-66
2021/12/07 10:55:15;;;;;;;1999.90;999.90;;;;;;;2.47;97.58;163057.38;5042346;28;20036;-66
2021/12/07 10:57:42;;;;;;;1999.90;999.90;;;;;;;2.79;97.46;163142.28;5037363;28;20106;-66
2021/12/07 11:00:23;;;;;;;1999.90;999.90;;;;;;;2.72;96.44;163121.75;5037232;28;20057;-66
2021/12/07 11:03:21;;;;;;;1999.90;999.90;;;;;;;2.85;96.43;163156.03;5036511;28;20045;-65
2021/12/07 11:05:51;;;;;;;1999.90;999.90;;;;;;;2.82;96.57;163150.50;5043000;28;20476;-66
2021/12/07 11:08:19;;;;;;;1999.90;999.90;;;;;;;2.97;96.07;163188.88;5041793;28;20136;-65
2021/12/07 11:10:48;;;;;;;1999.90;999.90;;;;;;;2.70;97.64;163117.66;5042647;28;20099;-65
2021/12/07 11:13:21;;;;;;;1999.90;999.90;;;;;;;2.81;97.03;163146.41;5046004;28;20546;-67
2021/12/07 11:15:53;;;;;;;1999.90;999.90;;;;;;;2.26;98.39;162999.84;5035836;28;20057;-67
2021/12/07 11:18:36;;;;;;;1999.90;999.90;;;;;;;2.64;97.37;163101.22;5047237;28;20161;-66
2021/12/07 11:21:05;;;;;;;1999.90;999.90;;;;;;;2.90;96.55;163171.06;5039869;28;20282;-65
2021/12/07 11:23:42;;;;;;;1999.90;999.90;;;;;;;3.04;96.41;163206.69;5038025;28;20049;-65
2021/12/07 11:31:46;;;;;;;1999.90;999.90;;;;;;;3.03;95.37;163203.97;5042568;28;20041;-65
2021/12/07 11:34:18;;;;;;;1999.90;999.90;;;;;;;2.55;97.33;163076.56;5047607;28;20048;-65
2021/12/07 11:37:04;;;;;;;1999.90;999.90;;;;;;;2.19;98.14;162980.66;5035116;28;20378;-65
2021/12/07 11:39:37;;;;;;;1999.90;999.90;;;;;;;2.63;97.76;163098.47;5067022;28;20138;-65
2021/12/07 11:42:13;;;;;;;1999.90;999.90;;;;;;;2.86;96.40;163158.72;5039568;28;20041;-66
2021/12/07 11:44:59;;;;;;;1999.90;999.90;;;;;;;2.76;96.39;163134.09;5040300;28;20059;-65
2021/12/07 11:47:29;;;;;;;1999.90;999.90;;;;;;;2.68;97.08;163112.19;5043936;28;20399;-65
2021/12/07 11:49:58;;;;;;;1999.90;999.90;;;;;;;2.63;97.38;163098.47;5042271;28;20080;-65
2021/12/07 11:52:25;;;;;;;1999.90;999.90;;;;;;;2.53;97.58;163071.06;5034367;28;20077;-66
2021/12/07 11:54:52;;;;;;;1999.90;999.90;;;;;;;2.73;97.09;163125.88;5036676;28;20080;-66
2021/12/07 11:57:19;;;;;;;1999.90;999.90;;;;;;;2.72;96.81;163123.09;5039221;28;20469;-66
2021/12/07 11:59:48;;;;;;;1999.90;999.90;;;;;;;2.76;97.24;163134.09;5030936;28;20045;-66
2021/12/07 12:02:18;;;;;;;1999.90;999.90;;;;;;;2.90;96.13;163169.69;5039365;28;20307;-66
2021/12/07 12:04:46;;;;;;;1999.90;999.90;;;;;;;3.00;96.17;163197.09;5042217;28;20041;-65
2021/12/07 12:07:13;;;;;;;1999.90;999.90;;;;;;;2.78;96.69;163139.59;5042110;28;20080;-65
2021/12/07 12:09:46;;;;;;;1999.90;999.90;;;;;;;2.84;96.79;163154.63;5045179;28;20056;-65
2021/12/07 12:12:32;;;;;;;1999.90;999.90;;;;;;;2.94;96.14;163182.03;5042566;28;20045;-66
2021/12/07 12:15:17;;;;;;;1999.90;999.90;;;;;;;2.99;95.67;163194.34;5069482;28;20461;-65
2021/12/07 12:18:02;;;;;;;1999.90;999.90;;;;;;;3.04;95.62;163208.06;5038862;28;20057;-65
2021/12/07 12:20:56;;;;;;;1999.90;999.90;;;;;;;2.86;96.49;163160.13;5049850;28;20049;-65
2021/12/07 12:23:41;;;;;;;1999.90;999.90;;;;;;;2.71;97.47;163120.41;5036751;28;20076;-65
2021/12/07 12:26:11;;;;;;;1999.90;999.90;;;;;;;2.93;96.74;163179.31;5042037;28;20056;-66
2021/12/07 12:28:41;;;;;;;1999.90;999.90;;;;;;;3.16;95.46;163239.59;5040165;28;20053;-66
2021/12/07 12:31:09;;;;;;;1999.90;999.90;;;;;;;2.99;95.86;163194.34;5036023;28;20053;-65
2021/12/07 12:33:45;;;;;;;1999.90;999.90;;;;;;;3.20;95.79;163249.16;5044616;28;20133;-66
2021/12/07 12:36:12;;;;;;;1999.90;999.90;;;;;;;3.04;95.47;163208.06;5040954;28;20053;-65
2021/12/07 12:38:48;;;;;;;1999.90;999.90;;;;;;;2.93;96.23;163177.91;5037501;28;20076;-65
2021/12/07 12:41:16;;;;;;;1999.90;999.90;;;;;;;2.91;96.24;163172.47;5038434;28;20057;-66
2021/12/07 12:43:53;;;;;;;1999.90;999.90;;;;;;;2.62;96.86;163097.09;5043493;28;20107;-66
2021/12/07 12:46:30;;;;;;;1999.90;999.90;;;;;;;2.59;97.85;163087.50;5040206;28;20121;-65
2021/12/07 12:49:07;;;;;;;1999.90;999.90;;;;;;;2.72;97.18;163121.75;5038741;28;20041;-65
2021/12/07 12:51:46;;;;;;;1999.90;999.90;;;;;;;2.82;97.12;163150.50;5036461;28;20450;-66
2021/12/07 12:54:13;;;;;;;1999.90;999.90;;;;;;;2.97;96.25;163188.88;5032851;28;20053;-66